createdAt,value
2017-02-16T00:00:16.681Z,934.47
2017-02-16T00:00:44.867Z,934.49
2017-02-16T00:01:13.072Z,934.47
2017-02-16T00:01:41.267Z,934.44
2017-02-16T00:02:09.338Z,934.46
2017-02-16T00:02:37.554Z,934.47
2017-02-16T00:03:05.735Z,934.5
2017-02-16T00:03:33.957Z,934.48
2017-02-16T00:04:02.023Z,934.51
2017-02-16T00:04:30.185Z,934.51
2017-02-16T00:04:58.279Z,934.51
2017-02-16T00:05:26.481Z,934.54
2017-02-16T00:05:54.782Z,934.52
2017-02-16T00:06:23.094Z,934.53
2017-02-16T00:06:51.212Z,934.52
2017-02-16T00:07:19.419Z,934.55
2017-02-16T00:07:47.707Z,934.57
2017-02-16T00:08:15.984Z,934.55
2017-02-16T00:08:44.292Z,934.55
2017-02-16T00:09:12.432Z,934.55
2017-02-16T00:09:40.629Z,934.56
2017-02-16T00:10:08.862Z,934.55
2017-02-16T00:10:37.073Z,934.55
2017-02-16T00:11:05.243Z,934.58
2017-02-16T00:11:33.573Z,934.56
2017-02-16T00:12:01.642Z,934.56
2017-02-16T00:12:29.670Z,934.59
2017-02-16T00:12:57.857Z,934.61
2017-02-16T00:13:26.134Z,934.6
2017-02-16T00:13:54.273Z,934.62
2017-02-16T00:14:22.540Z,934.62
2017-02-16T00:14:50.692Z,934.59
2017-02-16T00:15:18.840Z,934.67
2017-02-16T00:15:47.050Z,934.63
2017-02-16T00:16:15.340Z,934.63
2017-02-16T00:16:43.787Z,934.62
2017-02-16T00:17:12.049Z,934.63
2017-02-16T00:17:40.232Z,934.6
2017-02-16T00:18:08.451Z,934.62
2017-02-16T00:18:36.750Z,934.62
2017-02-16T00:19:04.785Z,934.61
2017-02-16T00:19:32.891Z,934.62
2017-02-16T00:20:00.977Z,934.61
2017-02-16T00:20:29.191Z,934.58
2017-02-16T00:20:57.430Z,934.59
2017-02-16T00:21:25.500Z,934.59
2017-02-16T00:21:53.679Z,934.61
2017-02-16T00:22:21.800Z,934.63
2017-02-16T00:22:49.939Z,934.62
2017-02-16T00:23:18.214Z,934.63
2017-02-16T00:23:46.389Z,934.62
2017-02-16T00:24:14.512Z,934.63
2017-02-16T00:24:42.827Z,934.61
2017-02-16T00:25:11.075Z,934.61
2017-02-16T00:25:39.258Z,934.6
2017-02-16T00:26:07.458Z,934.61
2017-02-16T00:26:35.925Z,934.65
2017-02-16T00:27:04.201Z,934.61
2017-02-16T00:27:32.487Z,934.61
2017-02-16T00:28:00.647Z,934.63
2017-02-16T00:28:28.927Z,934.62
2017-02-16T00:28:57.215Z,934.6
2017-02-16T00:29:25.241Z,934.58
2017-02-16T00:29:53.447Z,934.58
2017-02-16T00:30:21.732Z,934.6
2017-02-16T00:30:50.030Z,934.61
2017-02-16T00:31:18.278Z,934.57
2017-02-16T00:31:46.749Z,934.61
2017-02-16T00:32:14.891Z,934.56
2017-02-16T00:32:43.117Z,934.57
2017-02-16T00:33:11.259Z,934.57
2017-02-16T00:33:39.511Z,934.54
2017-02-16T00:34:07.623Z,934.59
2017-02-16T00:34:35.955Z,934.59
2017-02-16T00:35:04.192Z,934.59
2017-02-16T00:35:32.228Z,934.61
2017-02-16T00:36:00.360Z,934.63
2017-02-16T00:36:28.483Z,934.61
2017-02-16T00:36:56.685Z,934.63
2017-02-16T00:37:24.865Z,934.62
2017-02-16T00:37:53.095Z,934.65
2017-02-16T00:38:21.405Z,934.64
2017-02-16T00:38:49.523Z,934.67
2017-02-16T00:39:17.717Z,934.63
2017-02-16T00:39:45.963Z,934.66
2017-02-16T00:40:14.074Z,934.65
2017-02-16T00:40:42.245Z,934.65
2017-02-16T00:41:10.459Z,934.68
2017-02-16T00:41:38.674Z,934.68
2017-02-16T00:42:06.712Z,934.67
2017-02-16T00:42:34.946Z,934.69
2017-02-16T00:43:03.253Z,934.69
2017-02-16T00:43:31.275Z,934.68
2017-02-16T00:43:59.506Z,934.7
2017-02-16T00:44:27.734Z,934.72
2017-02-16T00:44:56.030Z,934.73
2017-02-16T00:45:24.339Z,934.74
2017-02-16T00:45:52.656Z,934.77
2017-02-16T00:46:20.845Z,934.8
2017-02-16T00:46:48.957Z,934.75
2017-02-16T00:47:17.135Z,934.81
2017-02-16T00:47:45.432Z,934.79
2017-02-16T00:48:13.694Z,934.79
2017-02-16T00:48:41.932Z,934.78
2017-02-16T00:49:10.062Z,934.78
2017-02-16T00:49:38.276Z,934.8
2017-02-16T00:50:06.386Z,934.84
2017-02-16T00:50:34.598Z,934.81
2017-02-16T00:51:02.798Z,934.83
2017-02-16T00:51:31.002Z,934.8
2017-02-16T00:51:59.192Z,934.8
2017-02-16T00:52:27.353Z,934.81
2017-02-16T00:52:55.573Z,934.79
2017-02-16T00:53:23.875Z,934.8
2017-02-16T00:53:51.986Z,934.79
2017-02-16T00:54:20.293Z,934.77
2017-02-16T00:54:48.471Z,934.8
2017-02-16T00:55:16.505Z,934.79
2017-02-16T00:55:44.530Z,934.79
2017-02-16T00:56:12.591Z,934.76
2017-02-16T00:56:40.740Z,934.79
2017-02-16T00:57:08.904Z,934.8
2017-02-16T00:57:37.248Z,934.79
2017-02-16T00:58:05.465Z,934.84
2017-02-16T00:58:33.677Z,934.82
2017-02-16T00:59:01.809Z,934.83
2017-02-16T00:59:30.069Z,934.84
2017-02-16T00:59:58.184Z,934.82
2017-02-16T01:00:26.329Z,934.85
2017-02-16T01:00:54.598Z,934.85
2017-02-16T01:01:22.671Z,934.84
2017-02-16T01:01:50.991Z,934.83
2017-02-16T01:02:19.190Z,934.84
2017-02-16T01:02:47.474Z,934.83
2017-02-16T01:03:15.700Z,934.83
2017-02-16T01:03:43.866Z,934.83
2017-02-16T01:04:11.988Z,934.84
2017-02-16T01:04:40.216Z,934.86
2017-02-16T01:05:08.478Z,934.85
2017-02-16T01:05:36.681Z,934.85
2017-02-16T01:06:04.962Z,934.84
2017-02-16T01:06:33.150Z,934.87
2017-02-16T01:07:01.529Z,934.89
2017-02-16T01:07:29.841Z,934.85
2017-02-16T01:07:58.047Z,934.86
2017-02-16T01:08:26.384Z,934.88
2017-02-16T01:08:54.545Z,934.88
2017-02-16T01:09:22.789Z,934.85
2017-02-16T01:09:50.903Z,934.86
2017-02-16T01:10:19.087Z,934.85
2017-02-16T01:10:47.384Z,934.86
2017-02-16T01:11:15.618Z,934.87
2017-02-16T01:11:43.868Z,934.83
2017-02-16T01:12:12.280Z,934.82
2017-02-16T01:12:40.520Z,934.82
2017-02-16T01:13:08.659Z,934.82
2017-02-16T01:13:36.952Z,934.82
2017-02-16T01:14:05.183Z,934.8
2017-02-16T01:14:33.410Z,934.82
2017-02-16T01:15:01.615Z,934.81
2017-02-16T01:15:29.820Z,934.78
2017-02-16T01:15:58.140Z,934.81
2017-02-16T01:16:26.377Z,934.79
2017-02-16T01:16:54.512Z,934.8
2017-02-16T01:17:22.574Z,934.78
2017-02-16T01:17:50.725Z,934.78
2017-02-16T01:18:18.883Z,934.76
2017-02-16T01:18:47.039Z,934.79
2017-02-16T01:19:15.181Z,934.79
2017-02-16T01:19:43.396Z,934.77
2017-02-16T01:20:11.571Z,934.79
2017-02-16T01:20:39.693Z,934.75
2017-02-16T01:21:07.792Z,934.74
2017-02-16T01:21:35.999Z,934.76
2017-02-16T01:22:04.346Z,934.76
2017-02-16T01:22:32.670Z,934.78
2017-02-16T01:23:00.748Z,934.76
2017-02-16T01:23:28.944Z,934.77
2017-02-16T01:23:57.169Z,934.79
2017-02-16T01:24:25.470Z,934.77
2017-02-16T01:24:53.746Z,934.79
2017-02-16T01:25:21.937Z,934.79
2017-02-16T01:25:49.989Z,934.78
2017-02-16T01:26:18.138Z,934.79
2017-02-16T01:26:46.412Z,934.76
2017-02-16T01:27:14.690Z,934.77
2017-02-16T01:27:42.864Z,934.77
2017-02-16T01:28:11.116Z,934.76
2017-02-16T01:28:39.208Z,934.78
2017-02-16T01:29:07.544Z,934.78
2017-02-16T01:29:35.714Z,934.72
2017-02-16T01:30:03.904Z,934.75
2017-02-16T01:30:32.877Z,934.75
2017-02-16T01:31:01.139Z,934.75
2017-02-16T01:31:29.435Z,934.78
2017-02-16T01:31:57.885Z,934.78
2017-02-16T01:32:26.003Z,934.75
2017-02-16T01:32:54.355Z,934.77
2017-02-16T01:33:22.630Z,934.76
2017-02-16T01:33:50.713Z,934.76
2017-02-16T01:34:18.801Z,934.78
2017-02-16T01:34:47.076Z,934.8
2017-02-16T01:35:15.310Z,934.79
2017-02-16T01:35:43.515Z,934.78
2017-02-16T01:36:11.776Z,934.77
2017-02-16T01:36:40.061Z,934.77
2017-02-16T01:37:08.453Z,934.81
2017-02-16T01:37:36.678Z,934.77
2017-02-16T01:38:04.921Z,934.77
2017-02-16T01:38:33.059Z,934.78
2017-02-16T01:39:01.252Z,934.8
2017-02-16T01:39:29.571Z,934.79
2017-02-16T01:39:57.753Z,934.81
2017-02-16T01:40:25.799Z,934.79
2017-02-16T01:40:53.896Z,934.81
2017-02-16T01:41:22.027Z,934.82
2017-02-16T01:41:50.233Z,934.81
2017-02-16T01:42:18.567Z,934.79
2017-02-16T01:42:46.603Z,934.81
2017-02-16T01:43:14.936Z,934.81
2017-02-16T01:43:43.273Z,934.8
2017-02-16T01:44:11.438Z,934.8
2017-02-16T01:44:39.549Z,934.78
2017-02-16T01:45:07.838Z,934.81
2017-02-16T01:45:36.077Z,934.82
2017-02-16T01:46:04.276Z,934.83
2017-02-16T01:46:32.435Z,934.81
2017-02-16T01:47:00.545Z,934.83
2017-02-16T01:47:28.958Z,934.83
2017-02-16T01:47:57.295Z,934.81
2017-02-16T01:48:25.472Z,934.83
2017-02-16T01:48:53.697Z,934.78
2017-02-16T01:49:21.969Z,934.79
2017-02-16T01:49:50.177Z,934.81
2017-02-16T01:50:18.224Z,934.81
2017-02-16T01:50:46.438Z,934.83
2017-02-16T01:51:14.524Z,934.79
2017-02-16T01:51:42.655Z,934.81
2017-02-16T01:52:10.741Z,934.8
2017-02-16T01:52:39.011Z,934.78
2017-02-16T01:53:07.232Z,934.77
2017-02-16T01:53:35.382Z,934.78
2017-02-16T01:54:03.599Z,934.77
2017-02-16T01:54:31.804Z,934.75
2017-02-16T01:54:59.833Z,934.79
2017-02-16T01:55:27.982Z,934.74
2017-02-16T01:55:56.125Z,934.74
2017-02-16T01:56:24.323Z,934.77
2017-02-16T01:56:52.509Z,934.74
2017-02-16T01:57:20.907Z,934.75
2017-02-16T01:57:49.113Z,934.73
2017-02-16T01:58:17.292Z,934.71
2017-02-16T01:58:45.363Z,934.72
2017-02-16T01:59:13.539Z,934.72
2017-02-16T01:59:41.599Z,934.72
2017-02-16T02:00:09.868Z,934.68
2017-02-16T02:00:37.833Z,934.68
2017-02-16T02:01:05.895Z,934.69
2017-02-16T02:01:34.092Z,934.68
2017-02-16T02:02:02.391Z,934.68
2017-02-16T02:02:30.845Z,934.66
2017-02-16T02:02:59.119Z,934.68
2017-02-16T02:03:27.394Z,934.64
2017-02-16T02:03:55.668Z,934.66
2017-02-16T02:04:23.991Z,934.64
2017-02-16T02:04:52.167Z,934.63
2017-02-16T02:05:20.263Z,934.63
2017-02-16T02:05:48.303Z,934.62
2017-02-16T02:06:16.433Z,934.62
2017-02-16T02:06:44.768Z,934.61
2017-02-16T02:07:13.012Z,934.6
2017-02-16T02:07:41.228Z,934.63
2017-02-16T02:08:09.451Z,934.61
2017-02-16T02:08:37.775Z,934.56
2017-02-16T02:09:06.179Z,934.59
2017-02-16T02:09:34.469Z,934.54
2017-02-16T02:10:02.878Z,934.55
2017-02-16T02:10:31.036Z,934.55
2017-02-16T02:10:59.319Z,934.56
2017-02-16T02:11:27.551Z,934.54
2017-02-16T02:11:55.937Z,934.54
2017-02-16T02:12:24.122Z,934.53
2017-02-16T02:12:52.295Z,934.51
2017-02-16T02:13:20.736Z,934.54
2017-02-16T02:13:48.936Z,934.53
2017-02-16T02:14:17.267Z,934.53
2017-02-16T02:14:45.554Z,934.52
2017-02-16T02:15:13.772Z,934.53
2017-02-16T02:15:41.918Z,934.53
2017-02-16T02:16:10.229Z,934.54
2017-02-16T02:16:38.143Z,934.53
2017-02-16T02:17:06.457Z,934.54
2017-02-16T02:17:34.761Z,934.55
2017-02-16T02:18:02.936Z,934.54
2017-02-16T02:18:31.058Z,934.55
2017-02-16T02:18:59.414Z,934.57
2017-02-16T02:19:27.578Z,934.55
2017-02-16T02:19:55.709Z,934.54
2017-02-16T02:20:23.938Z,934.56
2017-02-16T02:20:52.112Z,934.58
2017-02-16T02:21:20.423Z,934.58
2017-02-16T02:21:48.555Z,934.59
2017-02-16T02:22:16.800Z,934.59
2017-02-16T02:22:45.151Z,934.55
2017-02-16T02:23:13.290Z,934.58
2017-02-16T02:23:41.486Z,934.58
2017-02-16T02:24:09.746Z,934.57
2017-02-16T02:24:37.904Z,934.56
2017-02-16T02:25:06.207Z,934.56
2017-02-16T02:25:34.436Z,934.56
2017-02-16T02:26:02.737Z,934.58
2017-02-16T02:26:30.962Z,934.55
2017-02-16T02:26:59.083Z,934.55
2017-02-16T02:27:27.437Z,934.54
2017-02-16T02:27:55.659Z,934.54
2017-02-16T02:28:23.900Z,934.55
2017-02-16T02:28:51.979Z,934.53
2017-02-16T02:29:20.164Z,934.53
2017-02-16T02:29:48.366Z,934.55
2017-02-16T02:30:16.473Z,934.55
2017-02-16T02:30:44.699Z,934.54
2017-02-16T02:31:12.907Z,934.56
2017-02-16T02:31:40.970Z,934.55
2017-02-16T02:32:09.268Z,934.53
2017-02-16T02:32:37.544Z,934.54
2017-02-16T02:33:05.618Z,934.51
2017-02-16T02:33:33.809Z,934.51
2017-02-16T02:34:01.963Z,934.53
2017-02-16T02:34:30.298Z,934.53
2017-02-16T02:34:58.499Z,934.56
2017-02-16T02:35:26.735Z,934.55
2017-02-16T02:35:54.941Z,934.56
2017-02-16T02:36:23.117Z,934.54
2017-02-16T02:36:51.255Z,934.52
2017-02-16T02:37:19.118Z,934.53
2017-02-16T02:37:47.213Z,934.53
2017-02-16T02:38:15.239Z,934.55
2017-02-16T02:38:43.401Z,934.54
2017-02-16T02:39:11.704Z,934.53
2017-02-16T02:39:40.008Z,934.53
2017-02-16T02:40:08.331Z,934.52
2017-02-16T02:40:36.232Z,934.5
2017-02-16T02:41:04.561Z,934.49
2017-02-16T02:41:32.582Z,934.49
2017-02-16T02:42:00.784Z,934.46
2017-02-16T02:42:28.953Z,934.44
2017-02-16T02:42:57.238Z,934.43
2017-02-16T02:43:25.463Z,934.45
2017-02-16T02:43:53.615Z,934.48
2017-02-16T02:44:21.862Z,934.45
2017-02-16T02:44:50.058Z,934.45
2017-02-16T02:45:18.307Z,934.44
2017-02-16T02:45:46.479Z,934.45
2017-02-16T02:46:14.805Z,934.45
2017-02-16T02:46:43.122Z,934.45
2017-02-16T02:47:11.440Z,934.45
2017-02-16T02:47:39.631Z,934.43
2017-02-16T02:48:07.737Z,934.46
2017-02-16T02:48:36.091Z,934.42
2017-02-16T02:49:04.364Z,934.44
2017-02-16T02:49:32.583Z,934.44
2017-02-16T02:50:00.981Z,934.43
2017-02-16T02:50:29.350Z,934.43
2017-02-16T02:50:57.515Z,934.44
2017-02-16T02:51:25.838Z,934.42
2017-02-16T02:51:54.154Z,934.43
2017-02-16T02:52:22.176Z,934.4
2017-02-16T02:52:50.446Z,934.4
2017-02-16T02:53:18.679Z,934.41
2017-02-16T02:53:46.885Z,934.35
2017-02-16T02:54:15.178Z,934.37
2017-02-16T02:54:43.463Z,934.38
2017-02-16T02:55:11.673Z,934.37
2017-02-16T02:55:39.852Z,934.38
2017-02-16T02:56:08.047Z,934.37
2017-02-16T02:56:36.090Z,934.38
2017-02-16T02:57:04.134Z,934.34
2017-02-16T02:57:32.381Z,934.36
2017-02-16T02:58:00.911Z,934.35
2017-02-16T02:58:29.094Z,934.35
2017-02-16T02:58:57.349Z,934.39
2017-02-16T02:59:25.475Z,934.39
2017-02-16T02:59:53.634Z,934.36
2017-02-16T03:00:21.838Z,934.34
2017-02-16T03:00:50.057Z,934.34
2017-02-16T03:01:18.193Z,934.38
2017-02-16T03:01:46.407Z,934.37
2017-02-16T03:02:14.533Z,934.42
2017-02-16T03:02:42.822Z,934.39
2017-02-16T03:03:11.028Z,934.39
2017-02-16T03:03:39.341Z,934.38
2017-02-16T03:04:07.466Z,934.41
2017-02-16T03:04:35.763Z,934.37
2017-02-16T03:05:03.907Z,934.41
2017-02-16T03:05:32.179Z,934.39
2017-02-16T03:06:00.403Z,934.37
2017-02-16T03:06:28.614Z,934.44
2017-02-16T03:06:56.936Z,934.41
2017-02-16T03:07:25.264Z,934.4
2017-02-16T03:07:53.492Z,934.4
2017-02-16T03:08:21.636Z,934.4
2017-02-16T03:08:49.852Z,934.38
2017-02-16T03:09:17.961Z,934.41
2017-02-16T03:09:46.223Z,934.38
2017-02-16T03:10:14.548Z,934.34
2017-02-16T03:10:42.805Z,934.35
2017-02-16T03:11:10.962Z,934.35
2017-02-16T03:11:39.165Z,934.36
2017-02-16T03:12:07.380Z,934.4
2017-02-16T03:12:35.600Z,934.34
2017-02-16T03:13:03.924Z,934.34
2017-02-16T03:13:31.937Z,934.35
2017-02-16T03:14:00.052Z,934.4
2017-02-16T03:14:28.297Z,934.38
2017-02-16T03:14:56.391Z,934.39
2017-02-16T03:15:24.610Z,934.38
2017-02-16T03:15:52.819Z,934.36
2017-02-16T03:16:21.071Z,934.36
2017-02-16T03:16:49.413Z,934.35
2017-02-16T03:17:17.595Z,934.34
2017-02-16T03:17:45.885Z,934.35
2017-02-16T03:18:14.009Z,934.4
2017-02-16T03:18:42.120Z,934.35
2017-02-16T03:19:10.392Z,934.35
2017-02-16T03:19:38.661Z,934.36
2017-02-16T03:20:06.857Z,934.33
2017-02-16T03:20:35.061Z,934.34
2017-02-16T03:21:03.309Z,934.34
2017-02-16T03:21:31.596Z,934.31
2017-02-16T03:21:59.912Z,934.34
2017-02-16T03:22:28.239Z,934.35
2017-02-16T03:22:56.485Z,934.34
2017-02-16T03:23:24.851Z,934.37
2017-02-16T03:23:52.899Z,934.35
2017-02-16T03:24:21.193Z,934.34
2017-02-16T03:24:49.436Z,934.34
2017-02-16T03:25:17.558Z,934.33
2017-02-16T03:25:45.872Z,934.31
2017-02-16T03:26:14.035Z,934.31
2017-02-16T03:26:42.170Z,934.31
2017-02-16T03:27:10.480Z,934.3
2017-02-16T03:27:38.717Z,934.28
2017-02-16T03:28:06.709Z,934.26
2017-02-16T03:28:34.933Z,934.31
2017-02-16T03:29:03.167Z,934.3
2017-02-16T03:29:31.297Z,934.25
2017-02-16T03:29:59.493Z,934.27
2017-02-16T03:30:27.596Z,934.26
2017-02-16T03:30:55.843Z,934.26
2017-02-16T03:31:24.192Z,934.22
2017-02-16T03:31:52.402Z,934.27
2017-02-16T03:32:20.627Z,934.26
2017-02-16T03:32:48.840Z,934.22
2017-02-16T03:33:16.949Z,934.2
2017-02-16T03:33:45.035Z,934.2
2017-02-16T03:34:13.072Z,934.24
2017-02-16T03:34:41.273Z,934.19
2017-02-16T03:35:09.452Z,934.22
2017-02-16T03:35:37.787Z,934.2
2017-02-16T03:36:06.102Z,934.19
2017-02-16T03:36:34.195Z,934.19
2017-02-16T03:37:02.456Z,934.2
2017-02-16T03:37:30.611Z,934.2
2017-02-16T03:37:58.913Z,934.19
2017-02-16T03:38:26.987Z,934.16
2017-02-16T03:38:54.998Z,934.19
2017-02-16T03:39:22.994Z,934.16
2017-02-16T03:39:51.153Z,934.17
2017-02-16T03:40:19.223Z,934.17
2017-02-16T03:40:47.556Z,934.16
2017-02-16T03:41:15.700Z,934.14
2017-02-16T03:41:43.738Z,934.14
2017-02-16T03:42:12.051Z,934.12
2017-02-16T03:42:40.206Z,934.09
2017-02-16T03:43:08.352Z,934.08
2017-02-16T03:43:36.595Z,934.12
2017-02-16T03:44:04.796Z,934.09
2017-02-16T03:44:33.125Z,934.1
2017-02-16T03:45:01.381Z,934.07
2017-02-16T03:45:29.466Z,934.08
2017-02-16T03:45:57.736Z,934.03
2017-02-16T03:46:25.971Z,934.05
2017-02-16T03:46:54.060Z,934.06
2017-02-16T03:47:22.249Z,934.02
2017-02-16T03:47:50.416Z,934.04
2017-02-16T03:48:18.767Z,934.04
2017-02-16T03:48:46.922Z,934.02
2017-02-16T03:49:15.056Z,933.97
2017-02-16T03:49:43.410Z,934.05
2017-02-16T03:50:11.715Z,934.03
2017-02-16T03:50:39.873Z,934.02
2017-02-16T03:51:08.034Z,934.05
2017-02-16T03:51:36.168Z,934.03
2017-02-16T03:52:04.367Z,934.05
2017-02-16T03:52:32.643Z,934
2017-02-16T03:53:01.014Z,934
2017-02-16T03:53:29.303Z,934
2017-02-16T03:53:57.517Z,934.01
2017-02-16T03:54:25.762Z,934
2017-02-16T03:54:53.916Z,933.98
2017-02-16T03:55:22.166Z,933.96
2017-02-16T03:55:50.482Z,933.96
2017-02-16T03:56:18.708Z,933.97
2017-02-16T03:56:46.895Z,933.95
2017-02-16T03:57:15.118Z,933.94
2017-02-16T03:57:43.279Z,933.95
2017-02-16T03:58:11.595Z,933.94
2017-02-16T03:58:39.690Z,933.94
2017-02-16T03:59:08.040Z,933.96
2017-02-16T03:59:36.133Z,933.95
2017-02-16T04:00:04.343Z,933.96
2017-02-16T04:00:32.470Z,933.93
2017-02-16T04:01:00.682Z,933.95
2017-02-16T04:01:28.808Z,933.92
2017-02-16T04:01:57.079Z,933.93
2017-02-16T04:02:25.119Z,933.92
2017-02-16T04:02:53.240Z,933.9
2017-02-16T04:03:21.463Z,933.91
2017-02-16T04:03:49.767Z,933.88
2017-02-16T04:04:18.084Z,933.92
2017-02-16T04:04:46.335Z,933.9
2017-02-16T04:05:14.427Z,933.9
2017-02-16T04:05:42.734Z,933.94
2017-02-16T04:06:10.735Z,933.93
2017-02-16T04:06:38.843Z,933.89
2017-02-16T04:07:07.047Z,933.92
2017-02-16T04:07:35.151Z,933.91
2017-02-16T04:08:03.317Z,933.93
2017-02-16T04:08:31.843Z,933.93
2017-02-16T04:09:00.121Z,933.93
2017-02-16T04:09:28.359Z,933.92
2017-02-16T04:09:56.683Z,933.89
2017-02-16T04:10:24.925Z,933.89
2017-02-16T04:10:53.173Z,933.89
2017-02-16T04:11:21.369Z,933.9
2017-02-16T04:11:49.564Z,933.86
2017-02-16T04:12:17.752Z,933.86
2017-02-16T04:12:45.874Z,933.86
2017-02-16T04:13:14.204Z,933.89
2017-02-16T04:13:42.421Z,933.85
2017-02-16T04:14:10.613Z,933.88
2017-02-16T04:14:38.805Z,933.84
2017-02-16T04:15:07.101Z,933.83
2017-02-16T04:15:35.317Z,933.84
2017-02-16T04:16:03.479Z,933.84
2017-02-16T04:16:31.556Z,933.85
2017-02-16T04:16:59.645Z,933.84
2017-02-16T04:17:27.623Z,933.81
2017-02-16T04:17:55.958Z,933.78
2017-02-16T04:18:24.369Z,933.78
2017-02-16T04:18:52.519Z,933.78
2017-02-16T04:19:20.836Z,933.8
2017-02-16T04:19:49.062Z,933.75
2017-02-16T04:20:17.103Z,933.76
2017-02-16T04:20:45.378Z,933.73
2017-02-16T04:21:13.510Z,933.72
2017-02-16T04:21:41.617Z,933.72
2017-02-16T04:22:09.851Z,933.75
2017-02-16T04:22:38.106Z,933.71
2017-02-16T04:23:06.470Z,933.75
2017-02-16T04:23:34.630Z,933.71
2017-02-16T04:24:02.721Z,933.73
2017-02-16T04:24:31.002Z,933.71
2017-02-16T04:24:59.287Z,933.7
2017-02-16T04:25:27.570Z,933.68
2017-02-16T04:25:55.808Z,933.72
2017-02-16T04:26:23.955Z,933.71
2017-02-16T04:26:52.242Z,933.71
2017-02-16T04:27:20.485Z,933.73
2017-02-16T04:27:48.662Z,933.72
2017-02-16T04:28:16.633Z,933.76
2017-02-16T04:28:45.003Z,933.72
2017-02-16T04:29:13.010Z,933.75
2017-02-16T04:29:41.296Z,933.72
2017-02-16T04:30:09.478Z,933.71
2017-02-16T04:30:37.703Z,933.71
2017-02-16T04:31:06.014Z,933.67
2017-02-16T04:31:34.269Z,933.69
2017-02-16T04:32:02.360Z,933.67
2017-02-16T04:32:30.539Z,933.67
2017-02-16T04:33:41.623Z,933.65
2017-02-16T04:34:09.964Z,933.65
2017-02-16T04:34:38.182Z,933.65
2017-02-16T04:35:06.361Z,933.61
2017-02-16T04:35:34.460Z,933.61
2017-02-16T04:36:02.667Z,933.62
2017-02-16T04:36:30.700Z,933.63
2017-02-16T04:36:58.918Z,933.6
2017-02-16T04:37:27.134Z,933.58
2017-02-16T04:37:55.196Z,933.59
2017-02-16T04:38:23.348Z,933.57
2017-02-16T04:38:51.599Z,933.55
2017-02-16T04:39:19.855Z,933.55
2017-02-16T04:39:48.059Z,933.53
2017-02-16T04:40:16.333Z,933.54
2017-02-16T04:40:44.541Z,933.52
2017-02-16T04:41:12.720Z,933.52
2017-02-16T04:41:40.925Z,933.5
2017-02-16T04:42:09.271Z,933.5
2017-02-16T04:42:37.575Z,933.47
2017-02-16T04:43:05.851Z,933.48
2017-02-16T04:43:34.165Z,933.5
2017-02-16T04:44:02.220Z,933.46
2017-02-16T04:44:30.420Z,933.48
2017-02-16T04:44:58.381Z,933.48
2017-02-16T04:45:26.659Z,933.45
2017-02-16T04:45:54.911Z,933.47
2017-02-16T04:46:23.026Z,933.46
2017-02-16T04:46:51.185Z,933.48
2017-02-16T04:47:19.310Z,933.45
2017-02-16T04:47:47.624Z,933.45
2017-02-16T04:48:15.814Z,933.44
2017-02-16T04:48:44.115Z,933.44
2017-02-16T04:49:12.179Z,933.43
2017-02-16T04:49:40.357Z,933.38
2017-02-16T04:50:08.514Z,933.36
2017-02-16T04:50:36.725Z,933.39
2017-02-16T04:51:04.835Z,933.37
2017-02-16T04:51:33.165Z,933.4
2017-02-16T04:52:01.384Z,933.38
2017-02-16T04:52:29.700Z,933.39
2017-02-16T04:52:58.023Z,933.38
2017-02-16T04:53:26.096Z,933.38
2017-02-16T04:53:54.336Z,933.4
2017-02-16T04:54:22.457Z,933.39
2017-02-16T04:54:50.739Z,933.39
2017-02-16T04:55:18.907Z,933.4
2017-02-16T04:55:47.147Z,933.36
2017-02-16T04:56:15.391Z,933.4
2017-02-16T04:56:43.663Z,933.35
2017-02-16T04:57:11.869Z,933.36
2017-02-16T04:57:40.152Z,933.38
2017-02-16T04:58:08.178Z,933.37
2017-02-16T04:58:36.590Z,933.32
2017-02-16T04:59:04.616Z,933.35
2017-02-16T04:59:32.833Z,933.35
2017-02-16T05:00:01.028Z,933.34
2017-02-16T05:00:29.103Z,933.32
2017-02-16T05:00:57.273Z,933.27
2017-02-16T05:01:25.631Z,933.28
2017-02-16T05:01:53.942Z,933.28
2017-02-16T05:02:22.170Z,933.29
2017-02-16T05:02:50.393Z,933.27
2017-02-16T05:03:18.551Z,933.28
2017-02-16T05:03:46.779Z,933.26
2017-02-16T05:04:14.962Z,933.26
2017-02-16T05:04:43.200Z,933.24
2017-02-16T05:05:11.484Z,933.22
2017-02-16T05:05:39.714Z,933.19
2017-02-16T05:06:08.043Z,933.21
2017-02-16T05:06:36.196Z,933.24
2017-02-16T05:07:04.323Z,933.2
2017-02-16T05:07:32.510Z,933.21
2017-02-16T05:08:00.795Z,933.2
2017-02-16T05:08:28.802Z,933.2
2017-02-16T05:08:57.095Z,933.2
2017-02-16T05:09:25.299Z,933.19
2017-02-16T05:09:53.514Z,933.19
2017-02-16T05:10:21.745Z,933.23
2017-02-16T05:10:50.052Z,933.21
2017-02-16T05:11:18.282Z,933.24
2017-02-16T05:11:46.343Z,933.21
2017-02-16T05:12:14.640Z,933.23
2017-02-16T05:12:42.913Z,933.23
2017-02-16T05:13:11.135Z,933.22
2017-02-16T05:13:39.327Z,933.2
2017-02-16T05:14:07.443Z,933.23
2017-02-16T05:14:35.724Z,933.21
2017-02-16T05:15:04.105Z,933.22
2017-02-16T05:15:32.208Z,933.2
2017-02-16T05:16:00.491Z,933.2
2017-02-16T05:16:28.720Z,933.2
2017-02-16T05:16:56.943Z,933.19
2017-02-16T05:17:25.216Z,933.17
2017-02-16T05:17:53.461Z,933.19
2017-02-16T05:18:21.640Z,933.22
2017-02-16T05:18:49.960Z,933.17
2017-02-16T05:19:18.140Z,933.17
2017-02-16T05:19:46.424Z,933.19
2017-02-16T05:20:14.676Z,933.16
2017-02-16T05:20:42.889Z,933.17
2017-02-16T05:21:11.154Z,933.18
2017-02-16T05:21:39.391Z,933.2
2017-02-16T05:22:07.479Z,933.17
2017-02-16T05:22:35.656Z,933.2
2017-02-16T05:23:03.819Z,933.16
2017-02-16T05:23:31.912Z,933.19
2017-02-16T05:24:00.061Z,933.14
2017-02-16T05:24:28.257Z,933.16
2017-02-16T05:24:56.413Z,933.14
2017-02-16T05:25:24.535Z,933.14
2017-02-16T05:25:52.634Z,933.15
2017-02-16T05:26:20.849Z,933.1
2017-02-16T05:26:48.999Z,933.13
2017-02-16T05:27:17.158Z,933.13
2017-02-16T05:27:45.349Z,933.13
2017-02-16T05:28:13.681Z,933.17
2017-02-16T05:28:41.975Z,933.15
2017-02-16T05:29:10.270Z,933.13
2017-02-16T05:29:38.452Z,933.14
2017-02-16T05:30:06.585Z,933.11
2017-02-16T05:30:34.863Z,933.12
2017-02-16T05:31:03.058Z,933.11
2017-02-16T05:31:31.196Z,933.1
2017-02-16T05:31:59.460Z,933.11
2017-02-16T05:32:27.602Z,933.11
2017-02-16T05:32:55.962Z,933.12
2017-02-16T05:33:24.193Z,933.1
2017-02-16T05:33:52.410Z,933.09
2017-02-16T05:34:20.617Z,933.07
2017-02-16T05:34:48.759Z,933.08
2017-02-16T05:35:17.002Z,933.09
2017-02-16T05:35:45.145Z,933.1
2017-02-16T05:36:13.420Z,933.07
2017-02-16T05:36:41.653Z,933.08
2017-02-16T05:37:09.706Z,933.1
2017-02-16T05:37:37.818Z,933.06
2017-02-16T05:38:06.120Z,933.07
2017-02-16T05:38:34.261Z,933.07
2017-02-16T05:39:02.619Z,933.03
2017-02-16T05:39:30.659Z,933.06
2017-02-16T05:39:58.960Z,933.07
2017-02-16T05:40:27.095Z,933.09
2017-02-16T05:40:55.313Z,933.03
2017-02-16T05:41:23.374Z,933.06
2017-02-16T05:41:51.540Z,933.07
2017-02-16T05:42:19.741Z,933.1
2017-02-16T05:42:47.962Z,933.07
2017-02-16T05:43:16.157Z,933.06
2017-02-16T05:43:44.458Z,933.1
2017-02-16T05:44:12.881Z,933.06
2017-02-16T05:44:41.106Z,933.08
2017-02-16T05:45:09.262Z,933.06
2017-02-16T05:45:37.449Z,933.05
2017-02-16T05:46:05.478Z,933.07
2017-02-16T05:46:33.599Z,933.07
2017-02-16T05:47:01.739Z,933.07
2017-02-16T05:47:29.875Z,933.07
2017-02-16T05:47:58.167Z,933.11
2017-02-16T05:48:26.306Z,933.06
2017-02-16T05:48:54.619Z,933.08
2017-02-16T05:49:22.842Z,933.07
2017-02-16T05:49:51.039Z,933.03
2017-02-16T05:50:19.190Z,933.04
2017-02-16T05:50:47.397Z,933.03
2017-02-16T05:51:15.509Z,933.01
2017-02-16T05:51:43.605Z,933.02
2017-02-16T05:52:11.595Z,933.03
2017-02-16T05:52:39.844Z,933
2017-02-16T05:53:07.931Z,933.02
2017-02-16T05:53:36.253Z,933.02
2017-02-16T05:54:04.470Z,932.97